createdAt,value
2023-01-17T00:02:02.261Z,7.20
2023-01-17T00:05:23.019Z,6.53
2023-01-17T00:08:43.403Z,5.90
2023-01-17T00:11:45.028Z,5.23
2023-01-17T00:14:47.075Z,5.30
2023-01-17T00:17:49.327Z,5.20
2023-01-17T00:21:09.635Z,6.07
2023-01-17T00:24:29.992Z,5.17
2023-01-17T00:27:31.504Z,5.63
2023-01-17T00:30:33.464Z,6.53
2023-01-17T00:33:35.346Z,6.53
2023-01-17T00:36:36.935Z,6.37
2023-01-17T00:39:38.545Z,4.53
2023-01-17T00:42:40.115Z,5.43
2023-01-17T00:46:01.463Z,9.20
2023-01-17T00:49:21.580Z,9.20
2023-01-17T00:52:41.876Z,8.90
2023-01-17T00:56:02.368Z,9.67
2023-01-17T00:59:22.639Z,6.40
2023-01-17T01:02:43.433Z,8.60
2023-01-17T01:06:03.657Z,5.83
2023-01-17T01:09:23.910Z,6.43
2023-01-17T01:12:44.189Z,5.37
2023-01-17T01:16:04.595Z,4.53
2023-01-17T01:19:24.875Z,8.27
2023-01-17T01:22:44.978Z,6.70
2023-01-17T01:26:05.278Z,6.50
2023-01-17T01:29:25.545Z,10.13
2023-01-17T01:32:45.935Z,6.53
2023-01-17T01:35:49.474Z,5.83
2023-01-17T01:38:51.174Z,7.30
2023-01-17T01:41:52.897Z,6.90
2023-01-17T01:44:55.234Z,7.70
2023-01-17T01:47:59.639Z,8.33
2023-01-17T01:51:03.673Z,6.70
2023-01-17T01:54:08.242Z,5.80
2023-01-17T01:57:11.093Z,7.27
2023-01-17T02:00:14.635Z,6.47
2023-01-17T02:03:19.405Z,7.90
2023-01-17T02:06:25.933Z,6.70
2023-01-17T02:09:27.800Z,6.47
2023-01-17T02:12:29.609Z,6.77
2023-01-17T02:15:42.118Z,6.17
2023-01-17T02:18:52.907Z,4.50
2023-01-17T02:22:06.791Z,7.33
2023-01-17T02:25:27.161Z,7.67
2023-01-17T02:28:28.774Z,4.07
2023-01-17T02:31:56.910Z,7.03
2023-01-17T02:35:17.306Z,6.50
2023-01-17T02:38:21.892Z,7.03
2023-01-17T02:41:27.981Z,8.47
2023-01-17T02:44:29.647Z,8.17
2023-01-17T02:47:31.977Z,6.67
2023-01-17T02:50:39.947Z,6.77
2023-01-17T02:53:56.932Z,6.10
2023-01-17T02:57:04.312Z,8.40
2023-01-17T03:00:18.187Z,7.90
2023-01-17T03:03:29.081Z,8.10
2023-01-17T03:06:36.575Z,6.90
2023-01-17T03:09:38.764Z,8.23
2023-01-17T03:12:40.827Z,4.17
2023-01-17T03:15:42.875Z,6.47
2023-01-17T03:18:44.784Z,9.10
2023-01-17T03:21:46.480Z,8.90
2023-01-17T03:24:48.276Z,5.37
2023-01-17T03:27:49.886Z,16.07
2023-01-17T03:30:51.572Z,7.33
2023-01-17T03:33:53.388Z,5.40
2023-01-17T03:36:55.021Z,4.10
2023-01-17T03:39:56.610Z,7.07
2023-01-17T03:42:58.253Z,7.17
2023-01-17T03:46:03.889Z,5.47
2023-01-17T03:49:05.524Z,4.10
2023-01-17T03:52:07.380Z,7.53
2023-01-17T03:55:09.185Z,10.57
2023-01-17T03:58:10.805Z,9.10
2023-01-17T04:01:12.664Z,11.03
2023-01-17T04:04:15.182Z,7.07
2023-01-17T04:07:17.014Z,5.60
2023-01-17T04:10:18.693Z,10.83
2023-01-17T04:13:20.404Z,10.00
2023-01-17T04:16:24.580Z,10.03
2023-01-17T04:19:26.237Z,10.63
2023-01-17T04:22:27.813Z,9.93
2023-01-17T04:25:30.959Z,8.90
2023-01-17T04:28:32.669Z,10.97
2023-01-17T04:31:34.446Z,10.20
2023-01-17T04:34:36.080Z,12.37
2023-01-17T04:37:37.726Z,10.20
2023-01-17T04:40:39.285Z,9.53
2023-01-17T04:43:40.893Z,11.37
2023-01-17T04:46:42.596Z,10.40
2023-01-17T04:49:44.320Z,10.17
2023-01-17T04:52:45.965Z,9.47
2023-01-17T04:55:47.574Z,11.07
2023-01-17T04:58:49.259Z,12.57
2023-01-17T05:01:50.900Z,8.13
2023-01-17T05:04:52.639Z,9.03
2023-01-17T05:07:54.933Z,8.63
2023-01-17T05:10:56.499Z,5.93
2023-01-17T05:13:58.121Z,8.67
2023-01-17T05:16:59.815Z,13.37
2023-01-17T05:20:01.568Z,9.57
2023-01-17T05:23:03.301Z,10.67
2023-01-17T05:26:05.039Z,9.23
2023-01-17T05:29:07.780Z,13.87
2023-01-17T05:32:09.588Z,9.50
2023-01-17T05:35:11.335Z,8.77
2023-01-17T05:38:13.033Z,11.07
2023-01-17T05:41:14.851Z,13.93
2023-01-17T05:44:16.519Z,8.47
2023-01-17T05:47:18.105Z,11.63
2023-01-17T05:50:21.379Z,13.73
2023-01-17T05:53:23.283Z,10.57
2023-01-17T05:56:24.929Z,13.67
2023-01-17T05:59:36.624Z,10.37
2023-01-17T06:02:38.839Z,13.30
2023-01-17T06:05:40.615Z,9.53
2023-01-17T06:08:42.356Z,10.80
2023-01-17T06:11:43.978Z,7.13
2023-01-17T06:14:45.721Z,11.27
2023-01-17T06:17:47.301Z,10.97
2023-01-17T06:20:52.519Z,9.10
2023-01-17T06:23:54.897Z,7.07
2023-01-17T06:26:56.955Z,13.33
2023-01-17T06:29:58.603Z,14.10
2023-01-17T06:33:00.338Z,12.23
2023-01-17T06:36:02.140Z,10.73
2023-01-17T06:39:04.328Z,24.73
2023-01-17T06:42:06.137Z,24.27
2023-01-17T06:45:08.072Z,16.53
2023-01-17T06:48:09.705Z,10.53
2023-01-17T06:51:11.799Z,12.47
2023-01-17T06:54:13.868Z,12.57
2023-01-17T06:57:15.453Z,13.00
2023-01-17T07:00:17.323Z,12.93
2023-01-17T07:03:19.145Z,18.13
2023-01-17T07:06:21.312Z,17.20
2023-01-17T07:09:23.087Z,13.23
2023-01-17T07:12:24.845Z,15.57
2023-01-17T07:15:26.595Z,12.97
2023-01-17T07:18:28.892Z,13.10
2023-01-17T07:21:30.477Z,11.77
2023-01-17T07:24:33.050Z,12.63
2023-01-17T07:27:34.836Z,13.43
2023-01-17T07:30:36.932Z,10.87
2023-01-17T07:33:44.577Z,10.20
2023-01-17T07:36:48.615Z,12.00
2023-01-17T07:39:53.835Z,13.67
2023-01-17T07:43:02.130Z,13.57
2023-01-17T07:46:05.434Z,11.00
2023-01-17T07:49:07.164Z,11.37
2023-01-17T07:52:09.231Z,11.30
2023-01-17T07:55:10.936Z,10.03
2023-01-17T07:58:12.977Z,13.63
2023-01-17T08:01:15.890Z,11.70
2023-01-17T08:04:17.683Z,12.93
2023-01-17T08:07:19.340Z,11.37
2023-01-17T08:10:21.361Z,12.17
2023-01-17T08:13:23.259Z,10.23
2023-01-17T08:16:25.566Z,10.17
2023-01-17T08:19:27.485Z,14.83
2023-01-17T08:22:30.532Z,14.10
2023-01-17T08:25:34.128Z,12.37
2023-01-17T08:28:35.791Z,14.83
2023-01-17T08:31:37.451Z,14.17
2023-01-17T08:34:39.159Z,18.97
2023-01-17T08:37:40.832Z,12.73
2023-01-17T08:40:43.222Z,15.57
2023-01-17T08:43:47.125Z,12.43
2023-01-17T08:46:49.214Z,10.03
2023-01-17T08:49:52.021Z,11.70
2023-01-17T08:53:00.141Z,13.10
2023-01-17T08:56:03.437Z,11.70
2023-01-17T08:59:05.216Z,8.93
2023-01-17T09:02:14.958Z,10.37
2023-01-17T09:05:16.630Z,9.80
2023-01-17T09:08:18.578Z,9.97
2023-01-17T09:11:20.220Z,11.43
2023-01-17T09:14:22.067Z,9.03
2023-01-17T09:17:23.878Z,9.67
2023-01-17T09:20:30.149Z,12.07
2023-01-17T09:23:32.073Z,12.17
2023-01-17T09:26:34.097Z,9.30
2023-01-17T09:29:35.731Z,8.70
2023-01-17T09:32:39.672Z,9.10
2023-01-17T09:35:41.329Z,9.23
2023-01-17T09:38:42.975Z,10.53
2023-01-17T09:42:03.020Z,9.67
2023-01-17T09:45:05.116Z,9.47
2023-01-17T09:48:09.229Z,9.23
2023-01-17T09:51:16.046Z,7.77
2023-01-17T09:54:22.249Z,5.37
2023-01-17T09:57:29.965Z,8.63
2023-01-17T10:00:41.496Z,11.87
2023-01-17T10:04:01.601Z,9.93
2023-01-17T10:07:09.704Z,5.40
2023-01-17T10:10:11.381Z,5.00
2023-01-17T10:13:28.891Z,6.60
2023-01-17T10:16:59.729Z,7.33
2023-01-17T10:20:01.773Z,9.90
2023-01-17T10:23:22.332Z,8.00
2023-01-17T10:26:27.169Z,7.07
2023-01-17T10:29:33.055Z,9.67
2023-01-17T10:32:34.994Z,10.03
2023-01-17T10:35:38.173Z,9.37
2023-01-17T10:38:42.121Z,9.43
2023-01-17T10:41:45.168Z,8.60
2023-01-17T10:44:50.582Z,13.30
2023-01-17T10:47:56.111Z,8.03
2023-01-17T10:51:14.950Z,10.57
2023-01-17T10:54:28.592Z,12.77
2023-01-17T10:57:33.146Z,10.63
2023-01-17T11:00:40.110Z,8.60
2023-01-17T11:03:44.245Z,8.00
2023-01-17T11:06:57.858Z,7.80
2023-01-17T11:10:00.035Z,16.97
2023-01-17T11:13:02.585Z,9.43
2023-01-17T11:16:06.700Z,9.70
2023-01-17T11:19:15.227Z,8.13
2023-01-17T11:22:17.778Z,6.37
2023-01-17T11:25:22.368Z,6.60
2023-01-17T11:28:30.504Z,7.40
2023-01-17T11:31:32.464Z,8.90
2023-01-17T11:34:34.368Z,6.43
2023-01-17T11:37:36.602Z,5.53
2023-01-17T11:40:42.247Z,6.53
2023-01-17T11:43:55.222Z,6.50
2023-01-17T11:47:14.424Z,7.77
2023-01-17T11:50:25.856Z,6.87
2023-01-17T11:53:36.745Z,5.83
2023-01-17T11:56:43.226Z,5.67
2023-01-17T11:59:45.182Z,10.67
2023-01-17T12:02:49.784Z,5.23
2023-01-17T12:06:14.873Z,7.00
2023-01-17T12:09:38.003Z,9.00
2023-01-17T12:12:58.829Z,8.77
2023-01-17T12:16:22.660Z,8.10
2023-01-17T12:19:33.715Z,6.60
2023-01-17T12:22:53.784Z,7.43
2023-01-17T12:26:01.510Z,5.80
2023-01-17T12:29:03.219Z,5.87
2023-01-17T12:32:04.799Z,5.13
2023-01-17T12:35:18.564Z,6.03
2023-01-17T12:38:32.213Z,7.13
2023-01-17T12:41:37.640Z,7.37
2023-01-17T12:44:51.777Z,5.70
2023-01-17T12:47:58.562Z,10.27
2023-01-17T12:51:06.253Z,6.87
2023-01-17T12:54:24.405Z,6.57
2023-01-17T12:57:33.717Z,7.63
2023-01-17T13:00:37.884Z,8.37
2023-01-17T13:03:42.607Z,8.80
2023-01-17T13:06:59.987Z,6.30
2023-01-17T13:10:07.750Z,9.30
2023-01-17T13:13:22.173Z,7.73
2023-01-17T13:16:35.517Z,7.20
2023-01-17T13:19:37.133Z,12.23
2023-01-17T13:22:39.890Z,11.43
2023-01-17T13:25:46.030Z,9.83
2023-01-17T13:28:50.577Z,13.60
2023-01-17T13:31:58.978Z,9.63
2023-01-17T13:35:01.745Z,9.90
2023-01-17T13:38:30.474Z,9.67
2023-01-17T13:41:35.146Z,9.40
2023-01-17T13:44:37.459Z,6.80
2023-01-17T13:47:40.567Z,9.77
2023-01-17T13:50:46.619Z,9.63
2023-01-17T13:53:48.264Z,8.13
2023-01-17T13:56:50.306Z,7.87
2023-01-17T13:59:59.063Z,6.20
2023-01-17T14:03:00.658Z,9.03
2023-01-17T14:06:02.254Z,7.77
2023-01-17T14:09:12.987Z,6.97
2023-01-17T14:12:21.281Z,7.57
2023-01-17T14:15:29.863Z,9.10
2023-01-17T14:18:41.915Z,9.43
2023-01-17T14:21:43.609Z,12.03
2023-01-17T14:25:00.475Z,8.53
2023-01-17T14:28:03.334Z,6.23
2023-01-17T14:31:09.207Z,10.43
2023-01-17T14:34:14.175Z,13.17
2023-01-17T14:37:15.874Z,14.33
2023-01-17T14:40:30.574Z,11.97
2023-01-17T14:43:33.274Z,17.57
2023-01-17T14:46:34.958Z,10.17
2023-01-17T14:49:38.888Z,10.10
2023-01-17T14:52:40.474Z,16.80
2023-01-17T14:55:48.288Z,17.43
2023-01-17T14:59:03.971Z,16.83
2023-01-17T15:02:11.436Z,17.43
2023-01-17T15:05:17.528Z,18.87
2023-01-17T15:08:20.577Z,21.37
2023-01-17T15:11:26.597Z,20.27
2023-01-17T15:14:34.389Z,12.13
2023-01-17T15:17:36.126Z,12.03
2023-01-17T15:20:38.117Z,11.37
2023-01-17T15:23:43.472Z,12.83
2023-01-17T15:26:45.314Z,11.27
2023-01-17T15:29:47.166Z,17.27
2023-01-17T15:32:49.391Z,16.87
2023-01-17T15:35:58.523Z,15.90
2023-01-17T15:39:02.187Z,17.90
2023-01-17T15:42:06.420Z,18.07
2023-01-17T15:45:12.135Z,17.50
2023-01-17T15:48:33.502Z,14.03
2023-01-17T15:51:39.013Z,10.87
2023-01-17T15:54:40.680Z,12.40
2023-01-17T15:57:48.303Z,9.63
2023-01-17T16:00:50.209Z,10.80
2023-01-17T16:03:54.077Z,7.83
2023-01-17T16:07:08.626Z,11.77
2023-01-17T16:10:17.683Z,11.87
2023-01-17T16:13:19.974Z,9.83
2023-01-17T16:16:25.885Z,10.37
2023-01-17T16:19:27.603Z,9.57
2023-01-17T16:22:29.245Z,11.33
2023-01-17T16:25:32.872Z,9.20
2023-01-17T16:28:34.765Z,8.53
2023-01-17T16:31:36.908Z,11.43
2023-01-17T16:34:38.559Z,12.07
2023-01-17T16:37:40.216Z,9.33
2023-01-17T16:40:46.300Z,8.03
2023-01-17T16:43:56.349Z,7.50
2023-01-17T16:46:59.705Z,7.90
2023-01-17T16:50:01.500Z,6.70
2023-01-17T16:53:03.227Z,11.57
2023-01-17T16:56:13.690Z,8.43
2023-01-17T16:59:15.517Z,11.00
2023-01-17T17:02:18.673Z,11.47
2023-01-17T17:05:20.672Z,12.03
2023-01-17T17:08:23.182Z,16.27
2023-01-17T17:11:25.039Z,12.33
2023-01-17T17:14:26.803Z,6.97
2023-01-17T17:17:29.148Z,10.37
2023-01-17T17:20:30.933Z,10.93
2023-01-17T17:23:32.664Z,11.77
2023-01-17T17:26:35.518Z,14.23
2023-01-17T17:29:37.242Z,11.47
2023-01-17T17:32:38.938Z,10.60
2023-01-17T17:35:40.555Z,7.27
2023-01-17T17:38:50.747Z,14.07
2023-01-17T17:41:52.597Z,8.67
2023-01-17T17:44:54.330Z,9.23
2023-01-17T17:47:55.999Z,9.17
2023-01-17T17:50:59.747Z,11.67
2023-01-17T17:54:03.310Z,8.77
2023-01-17T17:57:05.025Z,12.67
2023-01-17T18:00:06.998Z,10.53
2023-01-17T18:03:08.553Z,10.43
2023-01-17T18:06:11.282Z,11.57
2023-01-17T18:09:13.020Z,5.87
2023-01-17T18:12:14.684Z,11.33
2023-01-17T18:15:16.375Z,9.03
2023-01-17T18:18:17.959Z,9.10
2023-01-17T18:21:25.094Z,7.33
2023-01-17T18:24:26.838Z,10.30
2023-01-17T18:27:28.467Z,11.37
2023-01-17T18:30:34.921Z,7.70
2023-01-17T18:33:38.618Z,5.23
2023-01-17T18:36:40.288Z,5.60
2023-01-17T18:39:42.984Z,5.80
2023-01-17T18:42:44.560Z,15.53
2023-01-17T18:45:52.775Z,10.50
2023-01-17T18:48:57.526Z,7.57
2023-01-17T18:51:59.351Z,11.03
2023-01-17T18:55:01.078Z,9.67
2023-01-17T18:58:02.752Z,7.00
2023-01-17T19:01:15.262Z,9.83
2023-01-17T19:04:17.462Z,9.13
2023-01-17T19:07:21.231Z,5.60
2023-01-17T19:10:22.886Z,6.23
2023-01-17T19:13:24.718Z,7.80
2023-01-17T19:16:30.598Z,5.53
2023-01-17T19:19:32.247Z,10.97
2023-01-17T19:22:33.908Z,8.43
2023-01-17T19:25:36.209Z,8.73
2023-01-17T19:28:42.109Z,8.73
2023-01-17T19:31:44.028Z,5.30
2023-01-17T19:34:45.692Z,10.67
2023-01-17T19:37:47.955Z,6.93
2023-01-17T19:40:49.533Z,6.70
2023-01-17T19:43:55.321Z,4.63
2023-01-17T19:46:56.932Z,10.73
2023-01-17T19:49:58.639Z,7.60
2023-01-17T19:53:01.381Z,5.73
2023-01-17T19:56:14.638Z,7.87
2023-01-17T19:59:16.708Z,6.93
2023-01-17T20:02:19.020Z,7.67
2023-01-17T20:05:21.137Z,5.23
2023-01-17T20:08:22.811Z,13.47
2023-01-17T20:11:25.079Z,9.23
2023-01-17T20:14:26.886Z,6.33
2023-01-17T20:17:28.490Z,7.30
2023-01-17T20:20:32.502Z,6.67
2023-01-17T20:23:35.438Z,6.53
2023-01-17T20:26:37.127Z,8.10
2023-01-17T20:29:40.701Z,5.00
2023-01-17T20:32:42.388Z,7.57
2023-01-17T20:35:43.964Z,10.13
2023-01-17T20:38:46.318Z,7.40
2023-01-17T20:41:49.815Z,10.53
2023-01-17T20:44:51.658Z,9.93
2023-01-17T20:47:53.267Z,7.97
2023-01-17T20:50:54.890Z,9.27
2023-01-17T20:53:57.536Z,7.20
2023-01-17T20:56:59.112Z,6.97
2023-01-17T21:00:00.825Z,7.90
2023-01-17T21:03:03.116Z,9.80
2023-01-17T21:06:08.932Z,5.67
2023-01-17T21:09:15.029Z,10.80
2023-01-17T21:12:17.015Z,4.20
2023-01-17T21:15:18.671Z,5.50
2023-01-17T21:18:21.424Z,8.43
2023-01-17T21:21:25.304Z,6.00
2023-01-17T21:24:29.375Z,8.23
2023-01-17T21:27:30.987Z,8.30
2023-01-17T21:30:33.121Z,6.03
2023-01-17T21:33:34.898Z,7.20
2023-01-17T21:36:38.138Z,8.07
2023-01-17T21:39:39.879Z,8.50
2023-01-17T21:42:41.525Z,7.17
2023-01-17T21:45:43.138Z,6.83
2023-01-17T21:48:44.754Z,8.30
2023-01-17T21:51:55.481Z,7.53
2023-01-17T21:55:15.785Z,5.30
2023-01-17T21:58:36.083Z,6.03
2023-01-17T22:01:37.730Z,11.13
2023-01-17T22:04:39.617Z,7.70
2023-01-17T22:08:01.189Z,3.80
2023-01-17T22:11:03.870Z,7.87
2023-01-17T22:14:05.511Z,10.50
2023-01-17T22:17:07.144Z,5.57
2023-01-17T22:20:11.587Z,6.87
2023-01-17T22:23:13.157Z,7.53
2023-01-17T22:26:15.001Z,4.17
2023-01-17T22:29:18.829Z,7.43
2023-01-17T22:32:20.413Z,5.87
2023-01-17T22:35:22.996Z,6.33
2023-01-17T22:38:24.633Z,5.40
2023-01-17T22:41:29.811Z,6.13
2023-01-17T22:44:31.731Z,7.17
2023-01-17T22:47:34.108Z,7.63
2023-01-17T22:50:35.718Z,5.83
2023-01-17T22:53:44.807Z,7.70
2023-01-17T22:56:46.427Z,5.93
2023-01-17T22:59:48.029Z,9.73
2023-01-17T23:02:49.678Z,8.27
2023-01-17T23:05:51.285Z,6.47
2023-01-17T23:08:54.162Z,6.17
2023-01-17T23:11:56.349Z,7.40
2023-01-17T23:15:16.716Z,8.83
2023-01-17T23:18:36.841Z,5.03
2023-01-17T23:21:57.105Z,5.40
2023-01-17T23:25:06.429Z,5.97
2023-01-17T23:28:10.927Z,9.07
2023-01-17T23:31:12.606Z,9.83
2023-01-17T23:34:14.228Z,7.37
2023-01-17T23:37:15.832Z,11.30
2023-01-17T23:40:17.858Z,7.27
2023-01-17T23:43:25.535Z,4.80
2023-01-17T23:46:27.301Z,10.47
2023-01-17T23:49:31.282Z,6.03
2023-01-17T23:52:32.968Z,7.60
2023-01-17T23:55:35.388Z,11.17
2023-01-17T23:58:37.029Z,6.50
